createdAt,value
2023-09-02T00:02:19.092Z,21.90
2023-09-02T00:10:27.024Z,21.60
2023-09-02T00:18:32.851Z,21.60
2023-09-02T00:26:40.880Z,21.40
2023-09-02T00:34:46.954Z,21.10
2023-09-02T00:42:56.174Z,20.90
2023-09-02T00:51:03.808Z,20.80
2023-09-02T00:59:11.952Z,20.90
2023-09-02T01:07:17.769Z,20.90
2023-09-02T01:15:26.041Z,20.60
2023-09-02T01:23:57.129Z,20.60
2023-09-02T01:32:05.783Z,20.50
2023-09-02T01:40:15.266Z,20.50
2023-09-02T01:48:24.993Z,20.50
2023-09-02T01:56:31.602Z,20.40
2023-09-02T02:04:46.231Z,20.10
2023-09-02T02:12:54.582Z,20.30
2023-09-02T02:21:04.769Z,20.20
2023-09-02T02:29:12.714Z,20.10
2023-09-02T02:37:18.136Z,20.00
2023-09-02T02:45:26.226Z,20.00
2023-09-02T02:53:31.496Z,20.10
2023-09-02T03:01:43.714Z,20.10
2023-09-02T03:09:49.753Z,20.00
2023-09-02T03:17:58.025Z,19.90
2023-09-02T03:26:12.818Z,20.00
2023-09-02T03:34:23.574Z,20.10
2023-09-02T03:42:28.941Z,20.00
2023-09-02T03:50:37.040Z,19.80
2023-09-02T03:58:43.088Z,19.80
2023-09-02T04:06:51.718Z,19.90
2023-09-02T04:14:57.211Z,19.90
2023-09-02T04:23:05.292Z,19.90
2023-09-02T04:31:10.908Z,19.60
2023-09-02T04:39:18.861Z,20.00
2023-09-02T04:47:26.116Z,19.80
2023-09-02T04:55:35.093Z,20.00
2023-09-02T05:03:41.649Z,20.30
2023-09-02T05:11:49.712Z,20.60
2023-09-02T05:19:55.211Z,20.80
2023-09-02T05:28:03.210Z,20.40
2023-09-02T05:36:09.034Z,20.80
2023-09-02T05:44:17.163Z,20.90
2023-09-02T05:52:22.636Z,21.10
2023-09-02T06:00:30.633Z,22.10
2023-09-02T06:08:36.555Z,22.40
2023-09-02T06:16:44.408Z,22.20
2023-09-02T06:24:49.735Z,22.30
2023-09-02T06:32:58.039Z,23.20
2023-09-02T06:41:03.438Z,24.50
2023-09-02T06:49:11.785Z,24.80
2023-09-02T06:57:17.126Z,25.50
2023-09-02T07:05:25.133Z,25.90
2023-09-02T07:13:30.672Z,26.00
2023-09-02T07:21:38.590Z,25.80
2023-09-02T07:29:43.984Z,25.70
2023-09-02T07:37:52.025Z,26.40
2023-09-02T07:46:00.083Z,27.10
2023-09-02T07:54:08.262Z,27.20
2023-09-02T08:02:13.627Z,26.70
2023-09-02T08:10:21.840Z,27.30
2023-09-02T08:18:27.288Z,27.10
2023-09-02T08:26:35.315Z,27.10
2023-09-02T08:34:40.625Z,27.70
2023-09-02T08:42:50.854Z,28.00
2023-09-02T08:50:57.893Z,28.20
2023-09-02T08:59:05.879Z,28.10
2023-09-02T09:07:13.864Z,27.80
2023-09-02T09:15:22.973Z,28.20
2023-09-02T09:23:28.233Z,28.40
2023-09-02T09:31:36.089Z,28.30
2023-09-02T09:39:45.940Z,28.90
2023-09-02T09:47:54.028Z,29.30
2023-09-02T10:05:18.613Z,30.50
2023-09-02T10:14:00.569Z,30.70
2023-09-02T10:22:22.711Z,31.10
2023-09-02T10:30:36.036Z,32.00
2023-09-02T10:38:51.509Z,33.40
2023-09-02T12:22:29.789Z,67.90
2023-09-02T12:30:35.226Z,60.00
2023-09-02T12:38:56.051Z,60.60
2023-09-02T12:47:01.402Z,63.10
2023-09-02T12:55:14.957Z,64.10
2023-09-02T13:03:20.573Z,59.10
2023-09-02T13:11:30.535Z,49.80
2023-09-02T13:19:36.572Z,42.90
2023-09-02T13:27:44.842Z,39.40
2023-09-02T13:35:50.254Z,37.20
2023-09-02T13:43:58.205Z,36.00
2023-09-02T13:52:03.880Z,34.90
2023-09-02T14:00:25.165Z,34.30
2023-09-02T14:08:39.094Z,33.80
2023-09-02T14:16:47.137Z,33.70
2023-09-02T14:24:53.995Z,33.40
2023-09-02T14:33:02.027Z,32.80
2023-09-02T14:41:07.411Z,32.70
2023-09-02T14:49:16.288Z,32.60
2023-09-02T14:57:22.130Z,32.60
2023-09-02T15:05:31.595Z,32.40
2023-09-02T15:13:40.543Z,32.10
2023-09-02T15:21:48.456Z,31.90
2023-09-02T15:29:54.464Z,32.00
2023-09-02T15:38:04.342Z,31.70
2023-09-02T15:46:10.392Z,31.50
2023-09-02T15:54:18.484Z,31.50
2023-09-02T16:02:23.939Z,31.40
2023-09-02T16:10:34.137Z,31.20
2023-09-02T16:18:39.551Z,31.10
2023-09-02T16:26:47.620Z,31.00
2023-09-02T16:34:53.121Z,30.70
2023-09-02T16:43:02.517Z,30.60
2023-09-02T16:51:08.012Z,30.50
2023-09-02T16:59:16.527Z,30.30
2023-09-02T17:07:21.968Z,30.20
2023-09-02T17:15:38.469Z,30.00
2023-09-02T17:23:47.874Z,29.90
2023-09-02T17:31:58.397Z,29.70
2023-09-02T17:40:04.237Z,29.50
2023-09-02T17:48:14.325Z,29.30
2023-09-02T17:56:19.851Z,29.20
2023-09-02T18:04:27.876Z,28.80
2023-09-02T18:12:33.207Z,28.40
2023-09-02T18:20:41.189Z,28.10
2023-09-02T18:28:46.868Z,27.90
2023-09-02T18:36:54.900Z,27.60
2023-09-02T18:45:00.369Z,27.30
2023-09-02T18:53:08.414Z,27.20
2023-09-02T19:01:14.126Z,27.10
2023-09-02T19:09:22.116Z,26.90
2023-09-02T19:17:27.771Z,26.80
2023-09-02T19:25:40.439Z,26.70
2023-09-02T19:33:46.252Z,26.70
2023-09-02T19:41:56.623Z,26.60
2023-09-02T19:50:01.993Z,26.50
2023-09-02T19:58:10.185Z,26.40
2023-09-02T20:06:16.615Z,26.40
2023-09-02T20:14:24.540Z,26.20
2023-09-02T20:22:29.955Z,25.80
2023-09-02T20:30:41.128Z,25.60
2023-09-02T20:38:47.022Z,25.70
2023-09-02T20:46:55.105Z,25.60
2023-09-02T20:55:01.053Z,25.30
2023-09-02T21:03:09.289Z,25.20
2023-09-02T21:11:15.900Z,25.20
2023-09-02T21:19:23.840Z,25.00
2023-09-02T21:27:29.054Z,25.00
2023-09-02T21:35:40.994Z,24.80
2023-09-02T21:43:46.984Z,24.70
2023-09-02T21:51:54.996Z,24.60
2023-09-02T22:00:00.507Z,24.60
2023-09-02T22:08:09.793Z,24.40
2023-09-02T22:16:15.252Z,24.40
2023-09-02T22:24:23.213Z,24.10
2023-09-02T22:32:28.575Z,24.10
2023-09-02T22:40:36.869Z,24.10
2023-09-02T22:48:42.256Z,24.00
2023-09-02T22:56:51.054Z,23.90
2023-09-02T23:04:56.481Z,23.90
2023-09-02T23:13:04.963Z,23.90
2023-09-02T23:21:14.519Z,23.70
2023-09-02T23:29:22.609Z,23.60
2023-09-02T23:37:27.966Z,23.60
2023-09-02T23:45:38.616Z,23.40
2023-09-02T23:53:43.864Z,23.40
